Time;durP1;ratioP1;P1;durP2;ratioP2;P2;SDS_P1;SDS_P2;PMS_P1;PMS_P2;Temp;Humidity;BMP_temperature;BMP_pressure;BME280_temperature;BME280_humidity;BME280_pressure;Samples;Min_cycle;Max_cycle;Signal;HPM_P1;HPM_P2
2023/12/23 00:01:23;;;;;;;3.17;0.90;;;;;;;3.67;91.94;97500.44;5011200;28;20469;-85
2023/12/23 00:03:48;;;;;;;0.28;0.28;;;;;;;3.57;91.23;97494.19;5013030;28;20029;-85
2023/12/23 00:06:17;;;;;;;4.18;1.23;;;;;;;3.68;92.13;97509.97;4993233;28;20401;-85
2023/12/23 00:08:42;;;;;;;1.08;0.40;;;;;;;3.52;91.72;97496.75;4991820;28;20486;-85
2023/12/23 00:11:07;;;;;;;1.20;0.20;;;;;;;3.43;91.58;97498.97;5012855;28;20054;-85
2023/12/23 00:13:33;;;;;;;2.40;1.00;;;;;;;3.38;91.57;97483.06;4989803;28;20026;-85
2023/12/23 00:15:59;;;;;;;1.65;0.77;;;;;;;3.56;91.26;97513.72;5007381;28;20173;-85
2023/12/23 00:18:24;;;;;;;1.70;0.85;;;;;;;3.82;91.53;97528.97;5009341;28;20490;-85
2023/12/23 00:20:50;;;;;;;4.18;1.92;;;;;;;3.38;90.78;97537.63;5015671;28;20034;-85
2023/12/23 00:23:15;;;;;;;5.38;0.80;;;;;;;3.78;90.98;97541.81;5008538;28;20069;-85
2023/12/23 00:25:40;;;;;;;1.75;0.90;;;;;;;3.42;91.04;97512.38;5009817;28;20411;-85
2023/12/23 00:28:06;;;;;;;2.30;0.52;;;;;;;3.74;90.89;97548.59;5004195;28;20117;-85
2023/12/23 00:30:32;;;;;;;5.15;0.60;;;;;;;3.31;91.13;97543.03;5009107;28;20512;-85
2023/12/23 00:32:57;;;;;;;3.05;0.70;;;;;;;3.72;91.26;97555.97;4988647;28;20074;-86
2023/12/23 00:35:22;;;;;;;2.40;0.60;;;;;;;3.65;90.95;97565.03;5009424;28;20041;-85
2023/12/23 00:37:48;;;;;;;4.63;0.85;;;;;;;3.55;90.35;97559.59;4989456;28;20087;-85
2023/12/23 00:40:14;;;;;;;6.43;1.10;;;;;;;3.49;91.05;97547.34;5010391;28;20034;-85
2023/12/23 00:42:39;;;;;;;2.33;0.93;;;;;;;3.57;90.90;97558.31;4994266;28;20146;-85
2023/12/23 00:45:05;;;;;;;6.68;1.50;;;;;;;3.70;89.92;97565.94;4991654;28;20029;-85
2023/12/23 00:47:31;;;;;;;6.60;1.83;;;;;;;3.75;90.51;97549.41;5009866;28;20034;-85
2023/12/23 00:49:56;;;;;;;5.70;1.33;;;;;;;3.44;90.25;97570.97;4988960;28;20136;-85
2023/12/23 00:52:22;;;;;;;2.17;0.85;;;;;;;3.47;89.83;97581.06;5001969;28;20029;-85
2023/12/23 00:54:48;;;;;;;7.78;1.17;;;;;;;3.58;89.59;97609.25;4992226;28;20038;-85
2023/12/23 00:57:13;;;;;;;6.38;1.73;;;;;;;3.68;89.08;97618.16;5004590;28;20025;-85
2023/12/23 00:59:38;;;;;;;5.47;1.38;;;;;;;3.52;89.61;97607.53;5003546;28;20083;-85
2023/12/23 01:02:04;;;;;;;5.18;1.45;;;;;;;3.54;89.51;97597.53;4986852;28;20084;-85
2023/12/23 01:04:29;;;;;;;2.85;2.15;;;;;;;3.55;89.19;97617.63;4978433;28;20033;-85
2023/12/23 01:06:54;;;;;;;5.85;1.23;;;;;;;3.41;89.09;97624.97;4998874;28;20030;-84
2023/12/23 01:09:20;;;;;;;5.65;1.33;;;;;;;3.69;89.94;97629.50;4992473;28;20030;-84
2023/12/23 01:11:45;;;;;;;5.55;1.70;;;;;;;3.58;89.16;97617.16;4989787;28;20045;-84
2023/12/23 01:14:11;;;;;;;5.57;1.35;;;;;;;3.52;89.21;97612.78;4984277;28;20390;-84
2023/12/23 01:16:36;;;;;;;4.47;1.42;;;;;;;3.59;88.84;97616.91;4992281;28;20409;-85
2023/12/23 01:19:01;;;;;;;6.97;1.70;;;;;;;3.65;88.39;97660.81;4995457;28;20032;-85
2023/12/23 01:21:27;;;;;;;2.45;1.27;;;;;;;3.40;88.55;97643.69;4988882;28;20034;-84
2023/12/23 01:23:52;;;;;;;5.60;1.13;;;;;;;3.63;88.53;97660.25;4974449;28;20037;-85
2023/12/23 01:26:17;;;;;;;4.88;1.65;;;;;;;3.47;88.79;97634.59;5007318;28;20021;-85
2023/12/23 01:28:43;;;;;;;6.32;0.90;;;;;;;3.55;88.60;97670.38;5014092;28;20030;-85
2023/12/23 01:31:08;;;;;;;3.80;1.33;;;;;;;3.32;89.07;97633.50;5009958;28;20029;-85
2023/12/23 01:33:34;;;;;;;6.50;1.85;;;;;;;3.52;88.68;97629.44;4978145;28;20061;-84
2023/12/23 01:35:59;;;;;;;3.80;2.05;;;;;;;3.64;88.76;97645.22;4994171;28;20045;-85
2023/12/23 01:38:25;;;;;;;7.18;1.40;;;;;;;3.61;88.80;97659.69;4992559;28;20022;-85
2023/12/23 01:40:50;;;;;;;7.13;1.85;;;;;;;3.51;88.59;97656.84;4988482;28;20040;-84
2023/12/23 01:43:15;;;;;;;11.10;1.67;;;;;;;3.70;88.81;97683.88;5009445;28;20042;-85
2023/12/23 01:45:41;;;;;;;9.13;2.90;;;;;;;3.67;87.87;97673.78;4995821;28;20393;-84
2023/12/23 01:48:10;;;;;;;1.90;1.05;;;;;;;3.52;87.93;97665.53;4995849;28;20053;-85
2023/12/23 01:50:37;;;;;;;7.53;1.20;;;;;;;3.60;88.16;97687.09;5002392;28;20060;-84
2023/12/23 01:53:03;;;;;;;4.90;1.17;;;;;;;3.52;88.37;97702.47;5009250;28;20077;-85
2023/12/23 01:55:31;;;;;;;8.63;1.60;;;;;;;3.72;88.84;97697.63;5012990;28;20496;-85
2023/12/23 01:57:56;;;;;;;6.13;2.28;;;;;;;3.44;88.43;97716.03;5012898;28;20509;-84
2023/12/23 02:00:22;;;;;;;12.20;2.08;;;;;;;3.34;88.86;97707.91;5013711;28;20038;-84
2023/12/23 02:02:48;;;;;;;4.47;1.70;;;;;;;3.27;88.88;97708.03;4994559;28;20136;-84
2023/12/23 02:05:14;;;;;;;7.10;1.60;;;;;;;2.65;91.34;97709.44;4997451;28;20033;-84
2023/12/23 02:07:42;;;;;;;11.63;1.92;;;;;;;3.37;90.26;97710.06;4990293;28;20080;-84
2023/12/23 02:10:08;;;;;;;8.88;1.73;;;;;;;3.44;89.87;97721.31;5009496;28;20033;-84
2023/12/23 02:12:46;;;;;;;15.35;3.25;;;;;;;3.33;90.74;97730.81;5014423;28;20046;-84
2023/12/23 02:15:14;;;;;;;5.00;1.13;;;;;;;3.35;90.22;97709.50;5012470;28;20037;-84
2023/12/23 02:17:40;;;;;;;12.15;1.58;;;;;;;3.60;89.58;97736.44;5009666;28;20374;-84
2023/12/23 02:20:06;;;;;;;8.15;1.42;;;;;;;3.60;90.31;97725.88;5009640;28;20032;-84
2023/12/23 02:22:31;;;;;;;3.53;1.40;;;;;;;3.74;89.23;97716.66;5010980;28;20481;-85
2023/12/23 02:24:57;;;;;;;4.60;1.48;;;;;;;3.51;89.97;97728.06;4994470;28;20041;-85
2023/12/23 02:27:30;;;;;;;5.60;1.20;;;;;;;3.51;90.04;97722.00;5010480;28;20391;-85
2023/12/23 02:29:58;;;;;;;4.05;1.30;;;;;;;3.18;89.93;97714.66;5013061;28;20047;-84
2023/12/23 02:32:25;;;;;;;4.72;1.20;;;;;;;3.16;91.60;97694.81;4993272;28;20041;-84
2023/12/23 02:34:51;;;;;;;6.28;2.05;;;;;;;3.41;90.68;97706.72;5006730;28;20048;-85
2023/12/23 02:37:17;;;;;;;8.18;1.65;;;;;;;3.34;90.34;97694.72;4995116;28;20030;-85
2023/12/23 02:39:42;;;;;;;5.90;2.17;;;;;;;3.47;90.47;97694.47;5011534;28;20540;-85
2023/12/23 02:42:07;;;;;;;5.97;2.67;;;;;;;3.65;90.70;97704.88;4993427;28;20371;-84
2023/12/23 02:44:33;;;;;;;10.63;1.92;;;;;;;3.34;89.64;97702.63;4994494;28;20091;-84
2023/12/23 02:46:58;;;;;;;13.40;2.10;;;;;;;3.34;90.36;97706.03;5010909;28;20176;-85
2023/12/23 02:49:24;;;;;;;6.70;1.45;;;;;;;3.81;90.25;97704.16;4993239;28;20561;-85
2023/12/23 02:51:49;;;;;;;7.70;1.85;;;;;;;3.64;90.29;97703.28;4996471;28;20524;-85
2023/12/23 02:54:14;;;;;;;7.55;2.45;;;;;;;3.77;89.22;97718.84;4975534;28;20029;-85
2023/12/23 02:56:40;;;;;;;12.10;1.83;;;;;;;3.72;89.45;97708.19;4984069;28;20037;-85
2023/12/23 02:59:05;;;;;;;5.85;1.58;;;;;;;3.75;89.28;97740.22;4993243;28;20089;-85
2023/12/23 03:01:30;;;;;;;5.30;1.77;;;;;;;3.71;89.92;97733.75;5010159;28;20489;-84
2023/12/23 03:03:56;;;;;;;12.40;2.00;;;;;;;3.32;90.70;97712.59;4988030;28;20034;-84
2023/12/23 03:06:21;;;;;;;10.45;2.55;;;;;;;3.54;91.02;97729.41;4987408;28;20121;-84
2023/12/23 03:08:46;;;;;;;3.65;1.65;;;;;;;3.47;90.95;97710.31;4991913;28;20073;-84
2023/12/23 03:11:12;;;;;;;16.88;3.15;;;;;;;3.60;89.98;97720.59;4993195;28;20030;-84
2023/12/23 03:13:37;;;;;;;7.40;1.90;;;;;;;3.78;90.52;97729.16;4980180;28;20042;-85
2023/12/23 03:16:13;;;;;;;10.48;1.65;;;;;;;3.79;90.37;97735.25;5013134;28;20040;-85
2023/12/23 03:18:38;;;;;;;9.73;2.72;;;;;;;3.74;90.31;97724.59;5017156;28;21821;-85
2023/12/23 03:21:04;;;;;;;8.43;1.90;;;;;;;3.75;89.64;97710.38;4995827;28;20125;-85
2023/12/23 03:23:29;;;;;;;6.30;1.55;;;;;;;3.69;90.05;97698.13;4990763;28;20153;-84
2023/12/23 03:25:54;;;;;;;12.90;2.17;;;;;;;3.59;90.46;97716.34;4972580;28;20034;-84
2023/12/23 03:28:19;;;;;;;8.65;2.00;;;;;;;3.83;89.85;97711.84;5011288;28;20084;-85
2023/12/23 03:30:45;;;;;;;4.45;1.20;;;;;;;3.71;90.27;97691.53;5008551;28;20158;-85
2023/12/23 03:33:15;;;;;;;3.22;1.52;;;;;;;3.72;90.24;97695.81;4981516;28;20037;-85
2023/12/23 03:35:41;;;;;;;8.93;1.92;;;;;;;3.58;90.42;97672.56;4995238;28;20068;-84
2023/12/23 03:38:06;;;;;;;11.35;1.75;;;;;;;3.68;90.72;97680.66;5009024;28;20128;-84
2023/12/23 03:40:31;;;;;;;3.67;1.25;;;;;;;3.70;90.73;97681.22;4993072;28;20234;-84
2023/12/23 03:42:57;;;;;;;4.25;1.73;;;;;;;3.54;90.92;97680.13;4980063;28;20037;-84
2023/12/23 03:45:22;;;;;;;7.70;1.85;;;;;;;3.73;90.36;97686.06;5012040;28;20026;-84
2023/12/23 03:47:47;;;;;;;5.47;1.88;;;;;;;3.79;90.25;97680.66;4975318;28;20033;-84
2023/12/23 03:50:13;;;;;;;5.45;1.83;;;;;;;3.89;90.17;97697.72;4992432;28;20117;-84
2023/12/23 03:52:38;;;;;;;11.50;2.45;;;;;;;3.97;90.10;97686.78;5003304;28;20100;-84
2023/12/23 03:55:04;;;;;;;10.98;1.95;;;;;;;3.74;90.24;97680.53;5012371;28;20029;-85
2023/12/23 03:57:29;;;;;;;10.80;2.17;;;;;;;3.78;91.29;97689.59;4981840;28;20061;-85
2023/12/23 03:59:54;;;;;;;7.13;2.38;;;;;;;3.82;90.62;97692.56;4995581;28;20029;-84
2023/12/23 04:02:20;;;;;;;7.70;2.38;;;;;;;3.90;91.03;97683.47;4971188;28;20038;-84
2023/12/23 04:04:45;;;;;;;10.63;2.63;;;;;;;3.73;90.66;97662.31;5017838;28;20196;-84
2023/12/23 04:07:12;;;;;;;11.60;2.42;;;;;;;3.75;90.70;97676.06;5012171;28;20025;-84
2023/12/23 04:09:37;;;;;;;15.00;2.38;;;;;;;3.93;90.66;97672.47;5014266;28;20076;-84
2023/12/23 04:12:02;;;;;;;12.35;2.22;;;;;;;3.84;90.81;97663.31;5007197;28;20054;-84
2023/12/23 04:14:28;;;;;;;10.18;1.70;;;;;;;3.71;91.65;97672.28;5006247;28;20029;-84
2023/12/23 04:16:53;;;;;;;7.57;2.15;;;;;;;3.78;91.51;97646.56;4990226;28;20049;-84
2023/12/23 04:19:19;;;;;;;11.38;2.13;;;;;;;3.81;91.19;97661.94;5004588;28;20037;-84
2023/12/23 04:21:44;;;;;;;12.43;1.95;;;;;;;3.83;91.55;97627.38;4988713;28;20080;-84
2023/12/23 04:24:09;;;;;;;8.50;2.17;;;;;;;3.88;91.44;97641.50;5013775;28;20052;-85
2023/12/23 04:26:35;;;;;;;16.08;2.08;;;;;;;3.86;90.81;97630.38;5008693;28;20041;-84
2023/12/23 04:29:00;;;;;;;8.82;2.20;;;;;;;3.66;91.38;97635.25;5007202;28;20034;-84
2023/12/23 04:31:25;;;;;;;3.63;1.13;;;;;;;3.91;91.48;97648.91;4989239;28;20104;-84
2023/12/23 04:33:51;;;;;;;7.47;3.00;;;;;;;3.88;91.93;97653.88;4986195;28;20030;-84
2023/12/23 04:36:17;;;;;;;9.23;1.80;;;;;;;3.79;92.48;97634.97;5016898;28;20041;-83
2023/12/23 04:38:43;;;;;;;5.10;1.75;;;;;;;3.82;91.83;97623.16;5003594;28;20092;-83
2023/12/23 04:41:08;;;;;;;14.10;2.15;;;;;;;3.72;91.48;97623.75;4989097;28;20493;-84
2023/12/23 04:43:34;;;;;;;4.60;1.60;;;;;;;3.89;91.35;97614.03;5006276;28;20026;-84
2023/12/23 04:45:59;;;;;;;7.97;2.40;;;;;;;3.97;91.92;97621.59;4990837;28;20026;-84
2023/12/23 04:48:25;;;;;;;2.60;1.63;;;;;;;3.90;91.44;97609.56;5005300;28;20030;-83
2023/12/23 04:50:50;;;;;;;10.77;2.13;;;;;;;3.95;91.28;97617.59;4972602;28;21358;-84
2023/12/23 04:53:17;;;;;;;9.68;2.60;;;;;;;3.87;91.61;97634.59;5010915;28;20037;-84
2023/12/23 04:55:43;;;;;;;10.05;2.45;;;;;;;3.95;91.76;97615.75;5011786;28;20045;-84
2023/12/23 04:58:11;;;;;;;7.97;2.90;;;;;;;3.99;92.06;97624.81;4991148;28;20034;-83
2023/12/23 05:00:36;;;;;;;7.55;2.10;;;;;;;3.86;91.56;97617.19;5012576;28;20061;-84
2023/12/23 05:03:02;;;;;;;5.15;1.60;;;;;;;3.79;92.44;97638.44;5004502;28;20481;-84
2023/12/23 05:05:27;;;;;;;6.28;1.80;;;;;;;3.77;92.39;97613.31;4992466;28;20029;-84
2023/12/23 05:07:52;;;;;;;10.75;2.22;;;;;;;3.88;92.08;97622.22;5002702;28;20053;-84
2023/12/23 05:10:18;;;;;;;7.72;1.90;;;;;;;3.86;91.84;97605.81;4995041;28;20154;-84
2023/12/23 05:12:43;;;;;;;7.85;1.95;;;;;;;3.87;91.75;97612.69;5015256;28;20417;-84
2023/12/23 05:15:09;;;;;;;7.50;1.80;;;;;;;3.86;91.90;97613.72;4980386;28;20044;-83
2023/12/23 05:17:34;;;;;;;3.75;1.73;;;;;;;3.88;91.46;97601.09;4973250;28;20068;-83
2023/12/23 05:19:59;;;;;;;4.95;1.38;;;;;;;3.91;92.19;97614.59;4976850;28;20048;-84
2023/12/23 05:22:25;;;;;;;5.20;1.63;;;;;;;3.81;92.84;97609.16;4993939;28;20060;-84
2023/12/23 05:24:50;;;;;;;6.25;1.63;;;;;;;3.86;93.10;97613.72;5017503;28;20050;-84
2023/12/23 05:27:16;;;;;;;2.30;0.77;;;;;;;3.71;92.27;97601.06;5012512;28;20037;-84
2023/12/23 05:29:42;;;;;;;2.53;1.17;;;;;;;3.67;92.68;97600.72;5013115;28;20502;-84
2023/12/23 05:32:07;;;;;;;2.88;0.90;;;;;;;3.78;91.83;97602.50;5007175;28;20104;-84
2023/12/23 05:34:33;;;;;;;1.10;0.77;;;;;;;3.78;91.55;97591.94;5004759;28;20070;-83
2023/12/23 05:36:58;;;;;;;9.10;1.17;;;;;;;3.86;91.69;97598.69;5014646;28;20397;-83
2023/12/23 05:39:23;;;;;;;2.50;0.60;;;;;;;3.82;91.85;97597.56;5009180;28;20036;-83
2023/12/23 05:41:49;;;;;;;2.28;1.02;;;;;;;3.80;92.16;97591.69;5007715;28;20520;-84
2023/12/23 05:44:14;;;;;;;1.25;0.65;;;;;;;3.80;92.01;97583.78;5004420;28;20030;-84
2023/12/23 05:46:39;;;;;;;3.20;1.05;;;;;;;3.84;91.53;97592.84;4978285;28;20061;-84
2023/12/23 05:49:05;;;;;;;1.13;0.60;;;;;;;3.80;92.14;97584.59;5001423;28;20037;-84
2023/12/23 05:51:30;;;;;;;3.35;1.08;;;;;;;3.82;91.61;97581.75;5001421;28;20035;-83
2023/12/23 05:53:55;;;;;;;1.02;0.65;;;;;;;3.87;91.11;97567.84;5013552;28;20117;-84
2023/12/23 05:56:21;;;;;;;1.00;0.63;;;;;;;3.79;91.95;97563.72;4997130;28;20037;-84
2023/12/23 05:58:46;;;;;;;1.98;0.82;;;;;;;3.76;92.01;97551.81;5010660;28;20038;-84
2023/12/23 06:01:11;;;;;;;4.20;1.85;;;;;;;3.73;91.61;97559.41;4979777;28;20048;-84
2023/12/23 06:03:37;;;;;;;3.20;0.82;;;;;;;3.83;91.75;97564.84;4997303;28;20078;-83
2023/12/23 06:06:05;;;;;;;3.75;1.30;;;;;;;3.80;91.37;97544.22;4989563;28;20038;-84
2023/12/23 06:08:31;;;;;;;1.77;1.08;;;;;;;3.78;91.59;97552.38;4973108;28;20505;-84
2023/12/23 06:10:56;;;;;;;1.45;1.35;;;;;;;3.78;92.28;97548.91;5002026;28;20195;-84
2023/12/23 06:13:22;;;;;;;1.30;1.10;;;;;;;3.69;91.73;97537.94;5010558;28;20791;-84
2023/12/23 06:15:47;;;;;;;1.00;0.73;;;;;;;3.78;91.16;97541.00;5011509;28;20026;-83
2023/12/23 06:18:12;;;;;;;1.77;1.25;;;;;;;3.59;91.42;97521.13;4990253;28;20615;-84
2023/12/23 06:20:38;;;;;;;1.98;1.48;;;;;;;3.58;91.58;97511.66;5009466;28;20034;-84
2023/12/23 06:23:03;;;;;;;2.08;1.52;;;;;;;3.66;92.18;97513.88;5008695;28;20034;-84
2023/12/23 06:25:32;;;;;;;1.80;1.42;;;;;;;3.80;92.11;97517.81;4996671;28;20037;-84
2023/12/23 06:27:57;;;;;;;4.15;1.25;;;;;;;3.74;91.13;97516.13;5012149;28;20062;-84
2023/12/23 06:30:23;;;;;;;0.70;0.63;;;;;;;3.51;91.52;97505.72;5011375;28;20104;-84
2023/12/23 06:32:48;;;;;;;3.28;1.45;;;;;;;3.58;91.82;97490.53;4993898;28;20409;-84
2023/12/23 06:35:13;;;;;;;1.98;1.30;;;;;;;3.59;92.49;97492.94;4979996;28;20514;-84
2023/12/23 06:37:39;;;;;;;1.55;0.93;;;;;;;3.56;92.02;97484.69;5019359;28;20466;-84
2023/12/23 06:40:05;;;;;;;2.45;1.10;;;;;;;3.49;92.06;97462.94;5008251;28;20053;-84
2023/12/23 06:42:30;;;;;;;1.52;1.17;;;;;;;3.66;91.54;97493.59;5015966;28;20040;-84
2023/12/23 06:44:55;;;;;;;1.58;1.30;;;;;;;3.66;92.19;97480.41;5016971;28;20037;-84
2023/12/23 06:47:21;;;;;;;1.63;1.27;;;;;;;3.58;91.92;97477.34;4976234;28;20387;-84
2023/12/23 06:49:46;;;;;;;0.80;0.80;;;;;;;3.02;91.31;97476.31;4974446;28;20481;-83
2023/12/23 06:52:11;;;;;;;3.10;0.95;;;;;;;3.33;92.14;97458.41;5009620;28;20042;-84
2023/12/23 06:54:37;;;;;;;1.45;0.80;;;;;;;3.36;91.91;97461.41;5011589;28;20045;-84
2023/12/23 06:57:03;;;;;;;1.10;0.98;;;;;;;3.16;91.27;97453.13;5011115;28;20453;-84
2023/12/23 06:59:28;;;;;;;2.13;1.92;;;;;;;3.23;91.81;97435.31;5011810;28;20046;-84
2023/12/23 07:01:53;;;;;;;8.00;7.20;;;;;;;3.15;91.09;97445.44;4996730;28;20029;-84
2023/12/23 07:04:19;;;;;;;3.70;3.40;;;;;;;3.30;92.11;97451.78;4996675;28;20568;-84
2023/12/23 07:06:44;;;;;;;5.95;5.28;;;;;;;3.28;92.33;97445.94;4994136;28;20030;-84
2023/12/23 07:09:09;;;;;;;9.98;6.78;;;;;;;3.28;91.37;97440.66;4991627;28;20069;-84
2023/12/23 07:11:35;;;;;;;6.65;5.38;;;;;;;3.02;91.25;97431.50;4992221;28;20027;-84
2023/12/23 07:14:01;;;;;;;7.32;6.28;;;;;;;3.14;91.57;97420.94;4991985;28;20040;-84
2023/12/23 07:16:26;;;;;;;7.00;6.28;;;;;;;3.00;91.30;97409.06;5005504;28;20068;-84
2023/12/23 07:18:51;;;;;;;3.38;3.17;;;;;;;2.82;91.06;97430.28;5016105;28;20038;-84
2023/12/23 07:21:17;;;;;;;7.88;5.75;;;;;;;2.27;90.83;97403.66;5011726;28;20041;-84
2023/12/23 07:23:42;;;;;;;6.60;5.55;;;;;;;2.67;91.02;97420.28;4992628;28;20126;-84
2023/12/23 07:26:13;;;;;;;0.77;0.77;;;;;;;2.19;90.35;97412.69;5011300;28;20100;-84
2023/12/23 07:28:39;;;;;;;1.17;0.77;;;;;;;2.16;90.91;97405.25;4998402;28;20056;-83
2023/12/23 07:31:04;;;;;;;2.90;1.92;;;;;;;1.95;92.36;97405.81;5017513;28;20029;-83
2023/12/23 07:33:29;;;;;;;2.33;1.58;;;;;;;1.84;93.09;97382.94;5016196;28;20092;-83
2023/12/23 07:35:55;;;;;;;3.50;2.42;;;;;;;1.88;93.50;97384.09;4994054;28;20041;-84
2023/12/23 07:38:21;;;;;;;5.50;1.85;;;;;;;1.86;94.42;97386.16;5008253;28;20026;-83
2023/12/23 07:40:46;;;;;;;2.33;2.08;;;;;;;2.20;95.26;97372.19;5015362;28;20396;-83
2023/12/23 07:43:12;;;;;;;2.08;1.98;;;;;;;2.55;95.38;97358.94;4992105;28;20034;-84
2023/12/23 07:45:37;;;;;;;2.85;2.65;;;;;;;2.46;94.74;97341.91;4992492;28;20509;-84
2023/12/23 07:48:03;;;;;;;3.75;3.35;;;;;;;3.08;93.95;97342.00;4978368;28;20033;-84
2023/12/23 07:50:28;;;;;;;5.30;3.45;;;;;;;3.08;93.69;97348.03;4980212;28;20034;-84
2023/12/23 07:52:54;;;;;;;3.17;2.03;;;;;;;3.00;92.94;97316.81;4990141;28;20401;-84
2023/12/23 07:55:19;;;;;;;5.60;3.40;;;;;;;3.46;92.71;97332.34;5007010;28;20464;-84
2023/12/23 07:57:45;;;;;;;3.05;2.75;;;;;;;3.42;92.68;97319.88;5009603;28;20044;-84
2023/12/23 08:00:11;;;;;;;3.90;1.52;;;;;;;3.24;92.39;97312.19;4992527;28;20497;-84
2023/12/23 08:02:37;;;;;;;3.00;2.70;;;;;;;3.51;92.64;97302.63;4997554;28;20064;-84
2023/12/23 08:05:02;;;;;;;2.35;2.15;;;;;;;3.43;92.16;97295.91;5014033;28;20516;-84
2023/12/23 08:07:28;;;;;;;3.58;2.30;;;;;;;3.38;92.24;97300.31;4989294;28;20038;-84
2023/12/23 08:09:53;;;;;;;2.67;2.47;;;;;;;3.20;92.18;97287.34;5010246;28;20026;-84
2023/12/23 08:12:18;;;;;;;3.58;2.30;;;;;;;3.40;92.01;97279.78;4997531;28;20287;-84
2023/12/23 08:14:44;;;;;;;2.47;2.20;;;;;;;3.47;92.39;97277.78;4978587;28;20026;-83
2023/12/23 08:17:11;;;;;;;2.95;2.42;;;;;;;3.49;92.47;97263.31;4987637;28;20092;-84
2023/12/23 08:19:36;;;;;;;2.33;2.13;;;;;;;3.53;91.62;97269.69;5005285;28;20044;-84
2023/12/23 08:22:02;;;;;;;2.33;2.13;;;;;;;3.52;92.00;97268.09;5005167;28;20041;-83
2023/12/23 08:24:27;;;;;;;4.00;2.17;;;;;;;3.45;92.19;97254.25;5005734;28;22174;-84
2023/12/23 08:26:54;;;;;;;5.00;2.47;;;;;;;3.30;93.32;97254.03;4992766;28;20053;-83
2023/12/23 08:29:20;;;;;;;2.85;2.65;;;;;;;3.36;93.52;97242.56;5016081;28;20508;-84
2023/12/23 08:31:46;;;;;;;2.80;2.50;;;;;;;3.24;93.02;97248.94;4993152;28;20038;-83
2023/12/23 08:34:11;;;;;;;2.95;2.58;;;;;;;3.45;93.11;97242.94;5015042;28;20044;-83
2023/12/23 08:36:37;;;;;;;2.85;2.33;;;;;;;3.44;93.63;97218.41;5007950;28;20113;-83
2023/12/23 08:39:02;;;;;;;2.20;1.58;;;;;;;3.52;93.50;97220.59;4993154;28;20053;-84
2023/12/23 08:41:28;;;;;;;2.72;2.53;;;;;;;3.58;93.64;97227.53;5009665;28;20069;-84
2023/12/23 08:43:53;;;;;;;2.92;2.03;;;;;;;3.73;94.05;97214.53;5008101;28;20549;-84
2023/12/23 08:46:19;;;;;;;4.10;1.98;;;;;;;3.86;94.27;97212.59;5010027;28;20034;-84
2023/12/23 08:48:44;;;;;;;3.97;2.22;;;;;;;3.92;95.87;97212.41;5017146;28;20137;-84
2023/12/23 08:51:10;;;;;;;8.00;3.17;;;;;;;4.06;96.53;97218.94;5002141;28;20112;-84
2023/12/23 08:53:36;;;;;;;6.28;3.30;;;;;;;4.06;98.34;97208.38;5011352;28;20030;-83
2023/12/23 08:56:01;;;;;;;6.75;3.30;;;;;;;4.22;98.97;97218.03;4993526;28;20112;-84
2023/12/23 08:58:26;;;;;;;2.25;1.75;;;;;;;4.21;98.71;97192.69;5003769;28;20099;-84
2023/12/23 09:00:52;;;;;;;3.85;2.45;;;;;;;4.39;99.90;97210.81;4993028;28;20026;-84
2023/12/23 09:03:17;;;;;;;3.67;2.20;;;;;;;4.43;99.79;97229.63;5004818;28;20034;-84
2023/12/23 09:05:43;;;;;;;2.63;2.13;;;;;;;4.51;100.00;97222.06;4976362;28;20034;-84
2023/12/23 09:08:09;;;;;;;1.95;1.85;;;;;;;4.45;100.00;97196.66;5009212;28;20041;-84
2023/12/23 09:10:34;;;;;;;3.35;2.10;;;;;;;4.51;100.00;97197.47;5004256;28;20030;-84
2023/12/23 09:13:00;;;;;;;1.63;1.52;;;;;;;4.64;100.00;97230.59;5006181;28;20026;-84
2023/12/23 09:15:25;;;;;;;3.85;2.28;;;;;;;4.66;100.00;97210.81;4995486;28;20026;-83
2023/12/23 09:17:51;;;;;;;4.60;2.92;;;;;;;4.68;100.00;97206.09;4987405;28;20030;-84
2023/12/23 09:20:17;;;;;;;3.58;2.35;;;;;;;4.72;100.00;97209.81;4990530;28;20049;-84
2023/12/23 09:22:42;;;;;;;3.28;2.97;;;;;;;4.85;100.00;97235.81;4995482;28;20034;-84
2023/12/23 09:25:08;;;;;;;2.38;1.75;;;;;;;4.87;100.00;97238.25;5012351;28;20030;-83
2023/12/23 09:27:33;;;;;;;1.83;1.63;;;;;;;4.85;100.00;97235.81;5007519;28;20058;-84
2023/12/23 09:29:59;;;;;;;4.03;2.30;;;;;;;4.83;100.00;97230.00;5009335;28;21816;-84
2023/12/23 09:32:25;;;;;;;2.15;2.00;;;;;;;4.90;100.00;97219.22;4983145;28;20033;-84
2023/12/23 09:34:53;;;;;;;3.17;2.53;;;;;;;4.93;100.00;97250.44;4996806;28;20022;-84
2023/12/23 09:37:18;;;;;;;5.85;1.63;;;;;;;4.86;100.00;97234.78;5018589;28;20049;-84
2023/12/23 09:39:43;;;;;;;2.50;2.20;;;;;;;4.85;100.00;97203.34;5007224;28;20026;-84
2023/12/23 09:42:10;;;;;;;2.30;2.10;;;;;;;5.05;100.00;97261.63;5004466;28;20095;-84
2023/12/23 09:44:36;;;;;;;1.98;1.77;;;;;;;5.06;100.00;97264.06;5009737;28;20080;-84
2023/12/23 09:47:02;;;;;;;2.30;2.10;;;;;;;5.13;100.00;97269.13;5006462;28;20073;-83
2023/12/23 09:49:28;;;;;;;2.00;1.90;;;;;;;5.05;100.00;97248.41;5009493;28;20030;-84
2023/12/23 09:51:55;;;;;;;2.65;1.70;;;;;;;4.79;100.00;97213.06;5007974;28;20034;-84
2023/12/23 09:54:23;;;;;;;2.88;1.80;;;;;;;5.03;100.00;97259.25;4994109;28;20033;-84
2023/12/23 09:56:50;;;;;;;2.53;1.90;;;;;;;5.04;100.00;97244.19;5007838;28;20030;-84
2023/12/23 09:59:15;;;;;;;2.15;1.95;;;;;;;5.16;100.00;97252.75;4975142;28;20038;-83
2023/12/23 10:01:41;;;;;;;1.83;1.52;;;;;;;5.20;100.00;97261.75;4993493;28;20107;-83
2023/12/23 10:04:06;;;;;;;3.70;1.70;;;;;;;5.26;100.00;97263.41;5009851;28;20038;-83
2023/12/23 10:06:31;;;;;;;5.60;1.90;;;;;;;5.26;100.00;97269.47;4990781;28;20026;-85
2023/12/23 10:08:57;;;;;;;2.13;1.50;;;;;;;5.25;100.00;97283.78;5010598;28;20049;-84
2023/12/23 10:11:24;;;;;;;2.42;1.73;;;;;;;5.23;100.00;97269.19;5013345;28;20113;-84
2023/12/23 10:13:49;;;;;;;2.00;1.90;;;;;;;5.16;100.00;97271.25;4996079;28;20033;-84
2023/12/23 10:16:15;;;;;;;4.20;2.55;;;;;;;5.37;100.00;97270.38;5012378;28;20025;-84
2023/12/23 10:18:40;;;;;;;4.03;2.25;;;;;;;5.21;100.00;97268.66;5010219;28;20041;-83
2023/12/23 10:21:06;;;;;;;4.38;2.20;;;;;;;5.34;100.00;97273.53;5009143;28;20105;-84
2023/12/23 10:23:32;;;;;;;1.52;1.42;;;;;;;5.20;100.00;97273.16;4987016;28;20228;-84
2023/12/23 10:25:58;;;;;;;3.03;1.77;;;;;;;5.29;100.00;97276.13;5012445;28;20044;-84
2023/12/23 10:28:25;;;;;;;2.10;1.90;;;;;;;5.37;100.00;97280.16;4997424;28;20018;-84
2023/12/23 11:51:01;;;;;;;6.38;2.30;;;;;;;2.55;100.00;97403.72;3349723;26;20056;-79
2023/12/23 11:53:26;;;;;;;2.78;2.50;;;;;;;2.35;100.00;97390.13;5011583;28;20026;-79
2023/12/23 11:56:33;;;;;;;4.57;3.30;;;;;;;1.83;100.00;97370.03;5008053;28;20041;-78
2023/12/23 11:59:01;;;;;;;;;;;;;;;2.05;100.00;97426.31;4983795;28;20438;-79
2023/12/23 12:01:27;;;;;;;4.88;3.17;;;;;;;1.94;100.00;97427.13;4994980;28;19932;-80
2023/12/23 12:03:53;;;;;;;6.10;3.60;;;;;;;2.50;100.00;97435.19;5012341;28;20438;-80
2023/12/23 12:06:19;;;;;;;4.93;3.85;;;;;;;1.69;100.00;97390.50;5009554;28;20500;-79
2023/12/23 12:08:45;;;;;;;3.70;2.80;;;;;;;3.37;100.00;97438.44;5011438;28;20733;-79
2023/12/23 12:11:12;;;;;;;8.00;3.92;;;;;;;2.38;100.00;97426.50;5012343;28;20065;-79
2023/12/23 12:13:37;;;;;;;6.18;4.20;;;;;;;2.27;100.00;97429.97;5010981;28;20065;-81
2023/12/23 12:16:03;;;;;;;9.20;3.85;;;;;;;2.80;100.00;97453.44;5005391;28;20052;-79
2023/12/23 12:18:29;;;;;;;4.40;3.58;;;;;;;3.47;100.00;97436.78;5012752;28;20038;-79
2023/12/23 12:20:54;;;;;;;6.82;4.22;;;;;;;2.80;100.00;97427.09;5010945;28;20487;-79
2023/12/23 12:23:20;;;;;;;5.63;4.80;;;;;;;2.65;100.00;97411.81;5021625;28;20034;-79
2023/12/23 12:25:49;;;;;;;8.02;5.50;;;;;;;2.66;100.00;97423.16;5011775;28;20041;-80
2023/12/23 12:28:15;;;;;;;6.93;3.80;;;;;;;3.61;100.00;97432.00;5011982;28;20036;-79
2023/12/23 12:30:41;;;;;;;5.88;4.70;;;;;;;2.44;99.99;97433.50;5008154;28;20042;-78
2023/12/23 12:33:09;;;;;;;12.38;7.20;;;;;;;2.06;100.00;97433.97;5009577;28;20038;-79
2023/12/23 12:35:34;;;;;;;23.63;12.25;;;;;;;2.25;100.00;97422.28;5010261;28;20040;-79
2023/12/23 12:38:00;;;;;;;15.40;8.02;;;;;;;2.02;100.00;97448.63;4998423;28;20029;-78
2023/12/23 12:40:25;;;;;;;11.48;7.88;;;;;;;2.12;100.00;97438.31;5008414;28;20034;-79
2023/12/23 12:42:51;;;;;;;10.77;6.07;;;;;;;2.46;100.00;97428.78;5010297;28;20033;-80
2023/12/23 12:45:17;;;;;;;14.55;9.15;;;;;;;1.97;100.00;97435.34;5014511;28;20475;-80
2023/12/23 12:47:43;;;;;;;16.63;9.73;;;;;;;2.53;100.00;97440.00;5008100;28;20057;-80
2023/12/23 12:50:09;;;;;;;9.50;6.45;;;;;;;2.21;100.00;97436.13;5014262;28;20045;-80
2023/12/23 12:52:35;;;;;;;9.00;6.10;;;;;;;2.80;100.00;97440.28;5008202;28;20030;-79